ADDS METAR Data INFO
IDs: Format: Raw Decoded Include TAF

Data at: 0025 UTC 11 Dec 2017

KASL 110015Z AUTO 24003KT 10SM CLR 13/M04 A3031 RMK AO1 T01271037
KASL 102355Z AUTO 23003KT 10SM CLR 13/M04 A3031 RMK AO1 T01271039 10183 20127
KASL 102335Z AUTO 22004KT 10SM CLR 13/M04 A3030 RMK AO1 T01271038
KASL 102315Z AUTO 21005KT 10SM CLR 14/M04 A3031 RMK AO1 T01401036
KASL 102255Z AUTO 22004KT 10SM CLR 15/M03 A3031 RMK AO1 T01521035
KASL 102235Z AUTO 23005KT 10SM CLR 17/M03 A3031 RMK AO1 T01701034
KASL 102215Z AUTO 23005KT 10SM CLR 18/M03 A3031 RMK AO1 T01761035
KASL 102155Z AUTO 23007KT 10SM CLR 18/M03 A3031 RMK AO1 T01831034
KASL 102135Z AUTO 22006KT 10SM CLR 18/M03 A3031 RMK AO1 T01831035
KASL 102115Z AUTO 24007KT 10SM CLR 18/M03 A3031 RMK AO1 T01831034
KASL 102055Z AUTO 26005KT 10SM CLR 18/M03 A3031 RMK AO1 T01831033
KASL 102035Z AUTO 27007KT 10SM CLR 18/M04 A3032 RMK AO1 T01831036
KASL 102015Z AUTO 25008KT 220V280 10SM CLR 18/M03 A3033 RMK AO1 T01811032
KASL 101955Z AUTO 23008KT 10SM CLR 18/M03 A3033 RMK AO1 T01771033
KASL 101935Z AUTO 23006KT 10SM CLR 18/M03 A3034 RMK AO1 T01751032
KASL 101915Z AUTO 24006KT 10SM CLR 17/M03 A3035 RMK AO1 T01721029
KASL 101855Z AUTO 23005KT 10SM CLR 16/M03 A3035 RMK AO1 T01631033
KASL 101835Z AUTO 25006KT 10SM CLR 16/M03 A3036 RMK AO1 T01551035
KASL 101815Z AUTO 26007KT 10SM CLR 15/M03 A3038 RMK AO1 T01471035
KASL 101755Z AUTO 26003KT 10SM CLR 14/M04 A3039 RMK AO1 T01431036 10146 21037
KASL 101735Z AUTO 26006KT 10SM CLR 14/M03 A3040 RMK AO1 T01411034
KASL 101715Z AUTO 25006KT 10SM CLR 14/M03 A3041 RMK AO1 T01351035
KASL 101655Z AUTO 23007KT 10SM CLR 13/M03 A3042 RMK AO1 T01271034
KASL 101635Z AUTO 23007KT 10SM CLR 13/M02 A3043 RMK AO1 T01271025
KASL 101615Z AUTO 24004KT 10SM CLR 12/M01 A3043 RMK AO1 T01151012
KASL 101555Z AUTO 00000KT 10SM CLR 10/00 A3043 RMK AO1 T01000002
KASL 101535Z AUTO 00000KT 10SM CLR 06/02 A3043 RMK AO1 T00620024
KASL 101515Z AUTO 00000KT 10SM CLR 04/00 A3042 RMK AO1 T00350000
KASL 101455Z AUTO 00000KT 10SM CLR 02/00 A3042 RMK AO1 T00161005
KASL 101435Z AUTO 00000KT 10SM CLR 00/M01 A3042 RMK AO1 T00021011
KASL 101415Z AUTO 00000KT 10SM CLR M01/M02 A3042 RMK AO1 T10101023
KASL 101355Z AUTO 00000KT 10SM CLR M02/M03 A3042 RMK AO1 T10231035
KASL 101335Z AUTO 00000KT 10SM CLR M04/M05 A3041 RMK AO1 T10371049
KASL 101315Z AUTO 00000KT 10SM CLR M04/M05 A3040 RMK AO1 T10371048
KASL 101255Z AUTO 00000KT 10SM CLR M04/M05 A3039 RMK AO1 T10371048
KASL 101235Z AUTO 00000KT 10SM CLR M04/M05 A3039 RMK AO1 T10371048
KASL 101215Z AUTO 00000KT 10SM CLR M04/M05 A3038 RMK AO1 T10371048
KASL 101155Z AUTO 00000KT 10SM CLR M03/M04 A3038 RMK AO1 T10301040 11004 21037
KASL 101135Z AUTO 00000KT 10SM CLR M03/M04 A3038 RMK AO1 T10331043
KASL 101115Z AUTO 00000KT 10SM CLR M02/M03 A3037 RMK AO1 T10231033
KASL 101055Z AUTO 00000KT 10SM CLR M03/M04 A3037 RMK AO1 T10271037
KASL 101035Z AUTO 00000KT 10SM CLR M03/M04 A3037 RMK AO1 T10291040
KASL 101015Z AUTO 00000KT 10SM CLR M02/M03 A3037 RMK AO1 T10231035
KASL 100955Z AUTO 00000KT 10SM CLR M02/M03 A3037 RMK AO1 T10231035
KASL 100935Z AUTO 00000KT 10SM CLR M02/M03 A3037 RMK AO1 T10231035
KASL 100915Z AUTO 00000KT 10SM CLR M02/M03 A3037 RMK AO1 T10231035
KASL 100855Z AUTO 00000KT 10SM CLR M02/M03 A3037 RMK AO1 T10231035
KASL 100835Z AUTO 00000KT 10SM CLR M01/M02 A3037 RMK AO1 T10111024
KASL 100815Z AUTO 00000KT 10SM CLR M02/M03 A3037 RMK AO1 T10191032
KASL 100755Z AUTO 00000KT 10SM CLR M01/M02 A3037 RMK AO1 T10101024
KASL 100735Z AUTO 00000KT 10SM CLR M01/M02 A3037 RMK AO1 T10101025
KASL 100715Z AUTO 00000KT 10SM CLR M01/M02 A3037 RMK AO1 T10101025
KASL 100655Z AUTO 00000KT 10SM CLR M01/M03 A3037 RMK AO1 T10101027
KASL 100635Z AUTO 00000KT 10SM CLR M01/M03 A3037 RMK AO1 T10101026
KASL 100615Z AUTO 00000KT 10SM CLR M01/M02 A3037 RMK AO1 T10061025
KASL 100555Z AUTO 00000KT 10SM CLR M01/M03 A3037 RMK AO1 T10101029 10100 21010 401401058
KASL 100535Z AUTO 00000KT 10SM CLR 00/M02 A3036 RMK AO1 T00041023
KASL 100515Z AUTO 00000KT 10SM CLR 02/M01 A3036 RMK AO1 T00161013
KASL 100455Z AUTO 00000KT 10SM CLR 02/M02 A3036 RMK AO1 T00231022
KASL 100435Z AUTO 00000KT 10SM CLR 03/M03 A3035 RMK AO1 T00261029
KASL 100415Z AUTO 00000KT 10SM CLR 03/M03 A3034 RMK AO1 T00321029
KASL 100355Z AUTO 00000KT 10SM CLR 04/M03 A3033 RMK AO1 T00421031
KASL 100335Z AUTO 33003KT 10SM CLR 05/M03 A3032 RMK AO1 T00461029
KASL 100315Z AUTO 33004KT 10SM CLR 06/M02 A3032 RMK AO1 T00581021
KASL 100255Z AUTO 32005KT 10SM CLR 06/M02 A3031 RMK AO1 T00591025
KASL 100235Z AUTO 33005KT 10SM CLR 06/M02 A3031 RMK AO1 T00581025
KASL 100215Z AUTO 32004KT 10SM CLR 06/M02 A3030 RMK AO1 T00581024
KASL 100155Z AUTO 00000KT 10SM CLR 06/M02 A3030 RMK AO1 T00641024
KASL 100135Z AUTO 00000KT 10SM CLR 07/M02 A3029 RMK AO1 T00721020
KASL 100115Z AUTO 30004KT 10SM CLR 07/M02 A3029 RMK AO1 T00721018
KASL 100055Z AUTO 29003KT 10SM CLR 07/M02 A3029 RMK AO1 T00721024
KASL 100035Z AUTO 00000KT 10SM CLR 07/M03 A3028 RMK AO1 T00721035
KASL 100015Z AUTO 32003KT 10SM CLR 09/M03 A3027 RMK AO1 T00871033
KASL 092355Z AUTO 30003KT 10SM CLR 10/M03 A3026 RMK AO1 T01001035 10140 20100
KASL 092335Z AUTO 30003KT 10SM CLR 10/M04 A3025 RMK AO1 T01031044
KASL 092315Z AUTO 31006KT 10SM CLR 12/M05 A3024 RMK AO1 T01151046
KASL 092255Z AUTO 32007KT 10SM CLR 12/M05 A3024 RMK AO1 T01171048
KASL 092235Z AUTO 32007KT 10SM CLR 13/M05 A3023 RMK AO1 T01271048
KASL 092215Z AUTO 33006KT 10SM CLR 13/M05 A3022 RMK AO1 T01301049
KASL 092155Z AUTO 33012G15KT 10SM CLR 14/M05 A3021 RMK AO1 T01351048
KASL 092135Z AUTO 32009KT 10SM CLR 14/M05 A3021 RMK AO1 T01351048
KASL 092115Z AUTO 33009G15KT 10SM CLR 14/M05 A3020 RMK AO1 T01351050
KASL 092055Z AUTO 30008KT 10SM CLR 14/M05 A3020 RMK AO1 T01371047
KASL 092035Z AUTO 34012G17KT 10SM CLR 14/M05 A3020 RMK AO1 T01351048
KASL 092015Z AUTO 32010G15KT 10SM CLR 14/M05 A3020 RMK AO1 T01351047
KASL 091955Z AUTO 33009G21KT 10SM CLR 13/M04 A3020 RMK AO1 T01321045
KASL 091935Z AUTO 33014G19KT 10SM CLR 13/M04 A3021 RMK AO1 T01331045
KASL 091915Z AUTO 29009G16KT 10SM CLR 13/M04 A3021 RMK AO1 T01271042
KASL 091855Z AUTO 32009G18KT 280V340 10SM CLR 13/M04 A3021 RMK AO1 T01271037
KASL 091835Z AUTO 34012G18KT 10SM CLR 12/M04 A3022 RMK AO1 T01221039
KASL 091815Z AUTO 33011KT 10SM CLR 12/M04 A3023 RMK AO1 T01151040
KASL 091755Z AUTO 36010G18KT 10SM CLR 12/M03 A3023 RMK AO1 T01151035 10115 21051
KASL 091735Z AUTO 31010G14KT 10SM CLR 10/M04 A3024 RMK AO1 T01001038
KASL 091715Z AUTO 33009G16KT 10SM CLR 10/M03 A3025 RMK AO1 T01001030
KASL 091655Z AUTO 31006KT 10SM CLR 09/M03 A3025 RMK AO1 T00931035
KASL 091635Z AUTO 34005KT 10SM CLR 09/M04 A3024 RMK AO1 T00861038
KASL 091615Z AUTO 30006KT 10SM CLR 07/M04 A3025 RMK AO1 T00721042
KASL 091555Z AUTO 31005KT 10SM CLR 07/M03 A3025 RMK AO1 T00721026
KASL 091535Z AUTO 28003KT 10SM CLR 04/M04 A3024 RMK AO1 T00381039
KASL 091515Z AUTO 00000KT 10SM CLR 03/M03 A3023 RMK AO1 T00301031
KASL 091455Z AUTO 00000KT 10SM CLR 02/M03 A3023 RMK AO1 T00161035
KASL 091435Z AUTO 00000KT 10SM CLR M01/M04 A3023 RMK AO1 T10101036
KASL 091415Z AUTO 00000KT 10SM CLR M03/M05 A3022 RMK AO1 T10301052
KASL 091355Z AUTO 00000KT 10SM CLR M04/M06 A3022 RMK AO1 T10371056
KASL 091335Z AUTO 00000KT 10SM CLR M04/M05 A3021 RMK AO1 T10371054
KASL 091315Z AUTO 00000KT 10SM CLR M04/M05 A3020 RMK AO1 T10371052
KASL 091255Z AUTO 00000KT 10SM CLR M05/M07 A3020 RMK AO1 T10511066
KASL 091235Z AUTO 00000KT 10SM CLR M05/M06 A3019 RMK AO1 T10511065